Time;durP1;ratioP1;P1;durP2;ratioP2;P2;SDS_P1;SDS_P2;PMS_P1;PMS_P2;Temp;Humidity;BMP_temperature;BMP_pressure;BME280_temperature;BME280_humidity;BME280_pressure;Samples;Min_cycle;Max_cycle;Signal;HPM_P1;HPM_P2
2022/12/10 00:01:12;;;;;;;20.25;18.45;;;9.80;85.60;;;;;;5055864;28;20473;-81
2022/12/10 00:03:38;;;;;;;20.02;18.13;;;9.80;85.60;;;;;;5054121;28;20029;-79
2022/12/10 00:06:07;;;;;;;19.95;18.08;;;9.80;85.60;;;;;;5039901;28;20408;-80
2022/12/10 00:08:34;;;;;;;20.15;18.35;;;9.80;85.60;;;;;;5054365;28;20021;-80
2022/12/10 00:11:02;;;;;;;20.10;18.23;;;9.80;85.50;;;;;;5053917;28;20021;-79
2022/12/10 00:13:27;;;;;;;20.63;18.77;;;9.80;85.50;;;;;;5051494;28;20051;-80
2022/12/10 00:15:53;;;;;;;20.63;18.63;;;9.80;85.50;;;;;;5054643;28;20560;-79
2022/12/10 00:18:19;;;;;;;20.45;18.58;;;9.80;85.50;;;;;;5055512;28;20029;-80
2022/12/10 00:20:45;;;;;;;20.92;18.92;;;9.90;85.60;;;;;;5035612;28;20040;-78
2022/12/10 00:23:11;;;;;;;20.80;18.90;;;9.80;85.50;;;;;;5029634;28;20026;-80
2022/12/10 00:25:36;;;;;;;20.00;18.17;;;9.80;85.50;;;;;;5035222;28;20600;-80
2022/12/10 00:28:02;;;;;;;19.92;18.08;;;9.80;85.50;;;;;;5034965;28;20025;-81
2022/12/10 00:30:28;;;;;;;20.10;18.20;;;9.80;85.50;;;;;;5034769;28;20159;-81
2022/12/10 00:32:53;;;;;;;20.48;18.58;;;9.80;85.50;;;;;;5032515;28;20071;-80
2022/12/10 00:35:19;;;;;;;20.67;18.77;;;9.80;85.50;;;;;;5033397;28;20542;-79
2022/12/10 00:37:44;;;;;;;18.95;17.13;;;9.80;85.50;;;;;;5052462;28;20035;-79
2022/12/10 00:40:12;;;;;;;19.30;17.48;;;9.80;85.50;;;;;;5033799;28;20032;-80
2022/12/10 00:42:38;;;;;;;20.27;18.27;;;9.80;85.40;;;;;;5036291;28;20032;-81
2022/12/10 00:45:04;;;;;;;19.65;17.85;;;9.80;85.40;;;;;;5053444;28;20033;-80
2022/12/10 00:47:29;;;;;;;19.52;17.80;;;9.80;85.40;;;;;;5037704;28;20021;-79
2022/12/10 00:49:55;;;;;;;20.10;18.27;;;9.80;85.40;;;;;;5036798;28;20048;-80
2022/12/10 00:52:20;;;;;;;19.50;17.60;;;9.80;85.40;;;;;;5036156;28;20025;-79
2022/12/10 00:54:46;;;;;;;18.88;17.17;;;9.80;85.40;;;;;;5032761;28;20048;-79
2022/12/10 00:57:11;;;;;;;20.80;18.90;;;9.80;85.50;;;;;;5016006;28;20090;-80
2022/12/10 00:59:37;;;;;;;20.10;18.30;;;9.80;85.40;;;;;;5018038;28;20082;-80
2022/12/10 01:02:03;;;;;;;20.17;18.17;;;9.80;85.40;;;;;;5035235;28;20017;-79
2022/12/10 01:04:28;;;;;;;19.88;18.05;;;9.80;85.40;;;;;;5051757;28;20539;-81
2022/12/10 01:06:54;;;;;;;20.10;18.20;;;9.80;85.40;;;;;;5038009;28;20481;-81
2022/12/10 01:09:24;;;;;;;19.98;18.10;;;9.80;85.50;;;;;;5038520;28;20480;-80
2022/12/10 01:11:51;;;;;;;19.92;18.02;;;9.80;85.40;;;;;;5034600;28;20464;-81
2022/12/10 01:14:24;;;;;;;19.85;18.02;;;9.80;85.40;;;;;;5050021;28;20048;-81
2022/12/10 01:16:53;;;;;;;20.50;18.60;;;9.80;85.50;;;;;;5050270;28;20365;-81
2022/12/10 01:19:19;;;;;;;20.50;18.60;;;9.80;85.40;;;;;;5055632;28;20523;-79
2022/12/10 01:21:44;;;;;;;20.02;18.13;;;9.80;85.40;;;;;;5055124;28;20025;-79
2022/12/10 01:24:10;;;;;;;19.67;17.88;;;9.80;85.30;;;;;;5054464;28;20470;-80
2022/12/10 01:26:36;;;;;;;19.67;17.88;;;9.80;85.30;;;;;;5037207;28;20033;-81
2022/12/10 01:29:03;;;;;;;20.63;18.73;;;9.80;85.30;;;;;;5036838;28;20401;-80
2022/12/10 01:31:36;;;;;;;19.27;17.48;;;9.80;85.40;;;;;;5021040;28;20131;-80
2022/12/10 01:34:03;;;;;;;19.45;17.55;;;9.80;85.30;;;;;;5047607;28;20021;-80
2022/12/10 01:36:32;;;;;;;20.38;18.58;;;9.80;85.30;;;;;;5037057;28;20025;-80
2022/12/10 01:39:00;;;;;;;20.80;18.90;;;9.80;85.30;;;;;;5050859;28;20083;-81
2022/12/10 01:41:41;;;;;;;20.20;18.30;;;9.80;85.40;;;;;;5035212;28;20083;-80
2022/12/10 01:44:10;;;;;;;19.02;17.13;;;9.80;85.30;;;;;;5036189;28;20075;-80
2022/12/10 01:46:38;;;;;;;20.02;18.13;;;9.80;85.30;;;;;;5053651;28;20507;-80
2022/12/10 01:49:10;;;;;;;20.17;18.38;;;9.80;85.50;;;;;;5032301;28;20113;-80
2022/12/10 01:51:39;;;;;;;20.75;18.85;;;9.80;85.40;;;;;;5036189;28;20444;-81
2022/12/10 01:54:10;;;;;;;20.30;18.40;;;9.80;85.20;;;;;;5035470;28;20052;-81
2022/12/10 01:56:40;;;;;;;20.67;18.77;;;9.80;85.30;;;;;;5053820;28;20033;-81
2022/12/10 01:59:06;;;;;;;20.05;18.17;;;9.80;85.20;;;;;;5053870;28;20040;-81
2022/12/10 02:01:53;;;;;;;19.98;18.17;;;9.80;85.10;;;;;;5050570;28;20500;-80
2022/12/10 02:04:37;;;;;;;19.67;17.88;;;9.80;85.10;;;;;;5035203;28;20025;-81
2022/12/10 02:07:15;;;;;;;20.30;18.48;;;9.80;85.00;;;;;;5017672;28;20025;-82
2022/12/10 02:09:46;;;;;;;20.45;18.55;;;9.90;85.10;;;;;;5035423;28;20021;-81
2022/12/10 02:12:22;;;;;;;20.47;18.57;;;9.90;85.10;;;;;;5038454;28;20469;-81
2022/12/10 02:15:12;;;;;;;21.90;19.98;;;9.90;85.20;;;;;;5021312;28;20048;-80
2022/12/10 02:17:47;;;;;;;20.35;18.45;;;9.90;85.00;;;;;;5038927;28;20022;-81
2022/12/10 02:20:24;;;;;;;20.85;18.95;;;9.80;85.00;;;;;;5038924;28;20112;-80
2022/12/10 02:22:57;;;;;;;20.75;18.85;;;9.80;85.00;;;;;;5051857;28;20029;-80
2022/12/10 02:25:41;;;;;;;20.70;18.80;;;9.80;85.10;;;;;;5060264;28;20028;-81
2022/12/10 02:28:19;;;;;;;20.80;18.90;;;9.80;85.20;;;;;;5042248;28;20447;-80
2022/12/10 02:30:48;;;;;;;19.63;17.85;;;9.80;85.20;;;;;;5036557;28;20108;-80
2022/12/10 02:33:16;;;;;;;21.20;19.27;;;9.80;85.20;;;;;;5038508;28;20027;-81
2022/12/10 02:35:43;;;;;;;19.52;17.73;;;9.80;85.30;;;;;;5059345;28;20029;-79
2022/12/10 02:38:19;;;;;;;19.40;17.60;;;9.80;85.30;;;;;;5058114;28;20452;-81
2022/12/10 02:40:48;;;;;;;20.23;18.38;;;9.80;85.40;;;;;;5056457;28;20112;-80
2022/12/10 02:43:15;;;;;;;20.17;18.27;;;9.70;85.30;;;;;;5032687;28;20111;-80
2022/12/10 02:45:42;;;;;;;20.75;18.55;;;9.80;86.00;;;;;;5057177;28;20029;-78
2022/12/10 02:48:09;;;;;;;19.80;18.00;;;9.70;85.40;;;;;;5057289;28;20052;-79
2022/12/10 02:50:35;;;;;;;19.02;17.30;;;9.70;85.40;;;;;;5039327;28;20025;-80
2022/12/10 02:53:00;;;;;;;20.50;18.63;;;9.70;85.50;;;;;;5045564;28;20388;-80
2022/12/10 02:55:26;;;;;;;21.15;19.25;;;9.70;85.50;;;;;;5056832;28;20033;-81
2022/12/10 02:58:41;;;;;;;19.90;17.98;;;9.70;85.50;;;;;;5038537;28;20135;-79
2022/12/10 03:01:25;;;;;;;19.90;18.10;;;9.70;85.50;;;;;;5036864;28;20040;-81
2022/12/10 03:03:59;;;;;;;19.92;18.13;;;9.70;85.50;;;;;;5041906;28;20025;-82
2022/12/10 03:06:32;;;;;;;19.75;17.95;;;9.70;85.50;;;;;;5054450;28;20021;-78
2022/12/10 03:09:05;;;;;;;20.02;18.13;;;9.70;85.50;;;;;;5037200;28;20481;-80
2022/12/10 03:11:31;;;;;;;20.08;18.17;;;9.70;85.60;;;;;;5024278;28;20029;-79
2022/12/10 03:14:13;;;;;;;20.77;18.77;;;9.70;85.50;;;;;;5035059;28;20034;-79
2022/12/10 03:16:43;;;;;;;19.40;17.60;;;9.70;86.00;;;;;;5034975;28;20031;-81
2022/12/10 03:19:16;;;;;;;20.15;18.25;;;9.70;85.50;;;;;;5038610;28;20032;-80
2022/12/10 03:21:43;;;;;;;20.52;18.63;;;9.70;85.50;;;;;;5037945;28;20017;-80
2022/12/10 03:24:10;;;;;;;20.02;18.13;;;9.70;85.50;;;;;;5055923;28;20025;-79
2022/12/10 03:26:39;;;;;;;21.27;19.27;;;9.70;85.50;;;;;;5054748;28;20029;-80
2022/12/10 03:29:09;;;;;;;19.13;17.42;;;9.70;85.50;;;;;;5052545;28;20094;-81
2022/12/10 03:31:37;;;;;;;20.02;18.02;;;9.70;85.50;;;;;;5035899;28;20033;-80
2022/12/10 03:34:05;;;;;;;19.77;17.88;;;9.70;85.50;;;;;;5047735;28;20493;-78
2022/12/10 03:36:31;;;;;;;19.85;17.95;;;9.70;85.50;;;;;;5045083;28;20044;-80
2022/12/10 03:38:57;;;;;;;20.27;18.48;;;9.70;85.40;;;;;;5039838;28;20432;-80
2022/12/10 03:41:23;;;;;;;20.58;18.65;;;9.70;85.40;;;;;;5033633;28;20460;-80
2022/12/10 03:43:54;;;;;;;19.92;18.13;;;9.70;85.40;;;;;;5056218;28;20090;-81
2022/12/10 03:46:20;;;;;;;18.63;16.92;;;9.70;85.40;;;;;;5047183;28;20025;-79
2022/12/10 03:48:46;;;;;;;20.33;18.40;;;9.70;85.40;;;;;;5056588;28;20029;-79
2022/12/10 03:51:11;;;;;;;20.00;18.20;;;9.70;85.40;;;;;;5056778;28;20015;-80
2022/12/10 03:53:37;;;;;;;20.55;18.65;;;9.70;85.40;;;;;;5052837;28;20112;-81
2022/12/10 03:56:03;;;;;;;19.67;17.88;;;9.70;85.50;;;;;;5037265;28;20029;-80
2022/12/10 03:58:28;;;;;;;20.40;18.50;;;9.70;85.40;;;;;;5033525;28;20461;-80
2022/12/10 04:00:54;;;;;;;20.30;18.40;;;9.70;85.40;;;;;;5056880;28;20028;-80
2022/12/10 04:03:19;;;;;;;19.75;17.95;;;9.70;85.40;;;;;;5039568;28;20051;-80
2022/12/10 04:05:45;;;;;;;19.63;17.83;;;9.70;85.40;;;;;;5052362;28;20025;-80
2022/12/10 04:08:10;;;;;;;19.95;18.10;;;9.70;85.40;;;;;;5056327;28;20362;-79
2022/12/10 04:10:37;;;;;;;19.73;17.92;;;9.70;85.40;;;;;;5055307;28;20561;-81
2022/12/10 04:18:31;;;;;;;19.88;18.13;;;9.70;85.30;;;;;;5057027;28;20059;-80
2022/12/10 04:29:09;;;;;;;20.30;18.45;;;9.70;85.30;;;;;;5037555;28;20033;-80
2022/12/10 04:31:35;;;;;;;19.88;17.98;;;9.70;85.30;;;;;;5017970;28;20037;-81
2022/12/10 04:34:01;;;;;;;19.95;18.13;;;9.70;85.30;;;;;;5036741;28;20025;-81
2022/12/10 04:36:27;;;;;;;20.25;18.35;;;9.70;85.30;;;;;;5038116;28;20033;-80
2022/12/10 04:38:52;;;;;;;20.17;18.30;;;9.70;85.30;;;;;;5038719;28;20026;-81
2022/12/10 04:41:18;;;;;;;19.42;17.63;;;9.70;85.30;;;;;;5056293;28;20029;-80
2022/12/10 04:43:43;;;;;;;19.70;17.90;;;9.70;85.20;;;;;;5037995;28;20059;-81
2022/12/10 04:46:09;;;;;;;19.48;17.67;;;9.70;85.30;;;;;;5046575;28;20024;-80
2022/12/10 04:48:35;;;;;;;20.10;18.15;;;9.70;85.30;;;;;;5038231;28;20021;-80
2022/12/10 04:51:01;;;;;;;20.88;18.98;;;9.70;85.30;;;;;;5055758;28;20397;-81
2022/12/10 04:53:27;;;;;;;20.13;18.23;;;9.70;85.30;;;;;;5055200;28;20033;-80
2022/12/10 04:55:52;;;;;;;19.30;17.50;;;9.70;85.30;;;;;;5055010;28;20442;-80
2022/12/10 04:58:18;;;;;;;20.13;18.27;;;9.70;85.30;;;;;;5055128;28;20025;-80
2022/12/10 05:00:43;;;;;;;20.15;18.30;;;9.70;85.30;;;;;;5037732;28;20048;-82
2022/12/10 05:03:09;;;;;;;20.48;18.58;;;9.70;85.30;;;;;;5054549;28;20059;-80
2022/12/10 05:05:35;;;;;;;19.48;17.65;;;9.70;85.30;;;;;;5057227;28;20040;-80
2022/12/10 05:08:01;;;;;;;20.13;18.23;;;9.70;85.20;;;;;;5053296;28;20438;-80
2022/12/10 05:10:26;;;;;;;20.08;18.23;;;9.70;85.30;;;;;;5030338;28;20036;-79
2022/12/10 05:12:52;;;;;;;19.45;17.70;;;9.70;85.30;;;;;;5050711;28;20032;-81
2022/12/10 05:15:18;;;;;;;20.05;18.23;;;9.70;85.30;;;;;;5030687;28;20025;-79
2022/12/10 05:17:44;;;;;;;20.60;18.70;;;9.70;85.30;;;;;;5043359;28;20029;-79
2022/12/10 05:20:10;;;;;;;20.40;18.50;;;9.70;85.20;;;;;;5053922;28;20365;-80
2022/12/10 05:25:20;;;;;;;19.50;17.77;;;9.70;85.20;;;;;;5052058;28;20036;-81
2022/12/10 05:27:46;;;;;;;19.38;17.55;;;9.70;85.10;;;;;;5037747;28;21448;-81
2022/12/10 05:30:12;;;;;;;19.67;17.88;;;9.80;85.10;;;;;;5052679;28;20416;-82
2022/12/10 05:32:37;;;;;;;19.85;18.05;;;9.80;85.10;;;;;;5047169;28;20577;-79
2022/12/10 05:35:03;;;;;;;19.10;17.30;;;9.80;85.10;;;;;;5047631;28;20025;-80
2022/12/10 05:37:29;;;;;;;20.52;18.63;;;9.80;85.00;;;;;;5047839;28;20021;-81
2022/12/10 05:39:54;;;;;;;19.55;17.83;;;9.80;85.00;;;;;;5027885;28;20017;-81
2022/12/10 05:42:20;;;;;;;19.50;17.80;;;9.80;85.00;;;;;;5046719;28;20030;-81
2022/12/10 05:44:46;;;;;;;20.35;18.55;;;9.80;85.10;;;;;;5054047;28;20485;-80
2022/12/10 05:47:11;;;;;;;19.98;18.08;;;9.80;85.00;;;;;;5038937;28;20033;-80
2022/12/10 05:49:37;;;;;;;20.77;18.88;;;9.80;85.00;;;;;;5021671;28;20374;-80
2022/12/10 05:52:02;;;;;;;20.95;19.00;;;9.80;85.00;;;;;;5023233;28;20530;-81
2022/12/10 05:54:28;;;;;;;20.80;18.88;;;9.80;85.10;;;;;;5041628;28;20021;-81
2022/12/10 05:56:54;;;;;;;19.90;18.10;;;9.80;85.10;;;;;;5024676;28;20500;-80
2022/12/10 05:59:19;;;;;;;19.73;17.98;;;9.70;85.10;;;;;;5041165;28;20086;-80
2022/12/10 06:01:45;;;;;;;20.00;18.20;;;9.70;85.20;;;;;;5041187;28;20034;-81
2022/12/10 06:04:11;;;;;;;19.80;18.00;;;9.70;85.20;;;;;;5042882;28;20603;-80
2022/12/10 06:06:39;;;;;;;19.90;17.98;;;9.70;85.30;;;;;;5059606;28;20021;-80
2022/12/10 06:09:06;;;;;;;20.15;18.25;;;9.70;85.30;;;;;;5060634;28;20101;-80
2022/12/10 06:11:32;;;;;;;20.70;18.80;;;9.70;85.30;;;;;;5057479;28;20024;-81
2022/12/10 06:13:59;;;;;;;19.52;17.67;;;9.70;85.40;;;;;;5021834;28;20022;-80
2022/12/10 06:16:26;;;;;;;20.42;18.52;;;9.70;85.40;;;;;;5051958;28;20025;-80
2022/12/10 06:18:52;;;;;;;19.33;17.52;;;9.70;85.40;;;;;;5057576;28;20473;-81
2022/12/10 06:21:19;;;;;;;20.27;18.38;;;9.60;85.40;;;;;;5035462;28;20036;-79
2022/12/10 06:23:45;;;;;;;19.55;17.75;;;9.60;85.40;;;;;;5037789;28;20071;-80
2022/12/10 06:26:14;;;;;;;20.08;18.27;;;9.70;85.50;;;;;;5056811;28;20036;-81
2022/12/10 06:28:40;;;;;;;18.35;16.75;;;9.70;85.50;;;;;;5056824;28;20097;-80
2022/12/10 06:31:06;;;;;;;19.92;18.02;;;9.70;85.50;;;;;;5055765;28;20024;-77
2022/12/10 06:33:31;;;;;;;21.38;17.90;;;9.70;85.30;;;;;;5035850;28;20029;-78
2022/12/10 06:35:57;;;;;;;19.98;18.17;;;9.60;85.20;;;;;;5054388;28;20400;-79
2022/12/10 06:38:23;;;;;;;19.70;17.80;;;9.70;85.20;;;;;;5038910;28;20025;-77
2022/12/10 06:40:49;;;;;;;18.42;16.73;;;9.60;85.20;;;;;;5037886;28;20075;-79
2022/12/10 06:43:14;;;;;;;19.08;17.27;;;9.70;85.30;;;;;;5034911;28;20029;-78
2022/12/10 06:45:41;;;;;;;17.90;16.23;;;9.70;85.30;;;;;;5037624;28;20497;-80
2022/12/10 06:48:07;;;;;;;19.10;17.30;;;9.60;85.30;;;;;;5036131;28;20095;-78
2022/12/10 06:50:33;;;;;;;19.63;17.83;;;9.60;85.20;;;;;;5041386;28;20040;-79
2022/12/10 06:52:59;;;;;;;19.20;17.42;;;9.70;85.30;;;;;;5048543;28;20031;-78
2022/12/10 06:55:25;;;;;;;19.58;17.67;;;9.70;85.30;;;;;;5056339;28;20060;-78
2022/12/10 06:57:52;;;;;;;19.13;17.38;;;9.60;85.30;;;;;;5036814;28;20022;-80
2022/12/10 07:00:17;;;;;;;18.35;16.65;;;9.60;85.30;;;;;;5055099;28;20059;-79
2022/12/10 07:02:43;;;;;;;18.83;17.13;;;9.60;85.30;;;;;;5037099;28;20028;-79
2022/12/10 07:05:09;;;;;;;19.25;17.45;;;9.60;85.70;;;;;;5057140;28;20079;-79
2022/12/10 07:07:36;;;;;;;19.02;17.30;;;9.60;85.20;;;;;;5061403;28;20081;-79
2022/12/10 07:10:01;;;;;;;19.70;17.90;;;9.60;85.20;;;;;;5049515;28;20036;-79
2022/12/10 07:12:27;;;;;;;19.05;17.25;;;9.70;85.30;;;;;;5037531;28;20028;-80
2022/12/10 07:14:53;;;;;;;19.00;17.30;;;9.60;85.20;;;;;;5041960;28;20500;-80
2022/12/10 07:17:18;;;;;;;18.42;16.73;;;9.60;85.10;;;;;;5057486;28;20025;-78
2022/12/10 07:19:44;;;;;;;19.05;17.35;;;9.60;85.10;;;;;;5046773;28;20485;-79
2022/12/10 07:22:09;;;;;;;18.42;16.67;;;9.60;85.00;;;;;;5038378;28;20022;-79
2022/12/10 07:24:35;;;;;;;18.88;17.13;;;9.60;85.00;;;;;;5049037;28;20017;-79
2022/12/10 07:27:00;;;;;;;18.58;16.77;;;9.60;85.10;;;;;;5056519;28;20025;-79
2022/12/10 07:29:26;;;;;;;19.42;17.42;;;9.60;85.20;;;;;;5050341;28;20453;-78
2022/12/10 07:31:52;;;;;;;21.38;18.48;;;9.60;84.80;;;;;;5048506;28;20036;-78
2022/12/10 07:34:17;;;;;;;20.63;18.55;;;9.60;84.30;;;;;;5038583;28;20044;-80
2022/12/10 07:36:43;;;;;;;22.23;18.98;;;9.60;84.10;;;;;;5039187;28;20032;-79
2022/12/10 07:39:16;;;;;;;20.38;18.17;;;9.60;84.20;;;;;;5052883;28;20028;-78
2022/12/10 07:41:43;;;;;;;20.45;18.38;;;9.60;84.30;;;;;;5051852;28;20018;-79
2022/12/10 07:44:11;;;;;;;21.33;18.45;;;9.60;84.30;;;;;;5056756;28;20059;-78
2022/12/10 07:46:37;;;;;;;24.17;18.98;;;9.60;84.40;;;;;;5025967;28;20496;-78
2022/12/10 07:49:03;;;;;;;20.15;18.15;;;9.60;84.50;;;;;;5037285;28;20040;-79
2022/12/10 07:51:29;;;;;;;19.65;17.58;;;9.60;84.40;;;;;;5039146;28;20025;-78
2022/12/10 07:53:55;;;;;;;19.77;17.88;;;9.60;84.50;;;;;;5035948;28;20445;-78
2022/12/10 07:56:22;;;;;;;18.88;17.08;;;9.60;84.50;;;;;;5035579;28;20025;-79
2022/12/10 07:58:47;;;;;;;19.50;17.52;;;9.60;84.50;;;;;;5054338;28;20361;-78
2022/12/10 08:01:19;;;;;;;20.98;17.92;;;9.60;84.60;;;;;;5054197;28;20086;-80
2022/12/10 08:03:44;;;;;;;20.10;17.25;;;9.60;84.60;;;;;;5034256;28;20036;-78
2022/12/10 08:06:15;;;;;;;19.20;17.35;;;9.70;84.60;;;;;;5054152;28;20033;-78
2022/12/10 08:08:42;;;;;;;20.50;17.75;;;9.60;84.60;;;;;;5038422;28;20025;-78
2022/12/10 08:11:08;;;;;;;19.08;17.15;;;9.60;84.60;;;;;;5016883;28;20405;-78
2022/12/10 08:13:33;;;;;;;18.75;16.90;;;9.60;84.60;;;;;;5049138;28;20021;-79
2022/12/10 08:16:08;;;;;;;19.30;17.40;;;9.60;84.60;;;;;;5037847;28;20032;-78
2022/12/10 08:18:34;;;;;;;19.95;18.00;;;9.60;84.60;;;;;;5055508;28;20612;-79
2022/12/10 08:21:11;;;;;;;19.60;17.60;;;9.60;84.60;;;;;;5056445;28;20039;-78
2022/12/10 08:23:37;;;;;;;19.23;17.40;;;9.60;84.60;;;;;;5055626;28;20516;-81
2022/12/10 08:26:10;;;;;;;19.20;17.40;;;9.70;84.70;;;;;;5051918;28;20029;-76
2022/12/10 08:28:36;;;;;;;19.33;17.52;;;9.70;84.70;;;;;;5050219;28;20017;-79
2022/12/10 08:31:02;;;;;;;20.67;18.73;;;9.60;84.60;;;;;;5055568;28;20078;-81
2022/12/10 08:33:28;;;;;;;18.42;16.73;;;9.60;84.60;;;;;;5056207;28;20051;-79
2022/12/10 08:36:00;;;;;;;18.63;16.92;;;9.70;84.70;;;;;;5035744;28;20494;-76
2022/12/10 08:38:26;;;;;;;18.65;16.85;;;9.70;84.70;;;;;;5018847;28;20175;-78
2022/12/10 08:40:52;;;;;;;20.38;18.27;;;9.70;84.60;;;;;;5055180;28;20036;-78
2022/12/10 08:43:17;;;;;;;19.75;17.85;;;9.60;84.60;;;;;;5052451;28;20392;-79
2022/12/10 08:45:43;;;;;;;18.58;16.77;;;9.70;84.60;;;;;;5037181;28;20049;-79
2022/12/10 08:48:08;;;;;;;19.33;17.42;;;9.70;84.60;;;;;;5055017;28;20017;-80
2022/12/10 08:50:35;;;;;;;19.45;17.63;;;9.60;84.50;;;;;;5055559;28;20029;-80
2022/12/10 08:53:01;;;;;;;19.05;17.15;;;9.60;84.50;;;;;;5054942;28;20481;-78
2022/12/10 08:55:26;;;;;;;19.02;17.13;;;9.60;84.40;;;;;;5055622;28;20025;-78
2022/12/10 08:57:52;;;;;;;20.13;18.10;;;9.60;84.50;;;;;;5039007;28;20025;-81
2022/12/10 09:00:18;;;;;;;19.13;17.13;;;9.60;84.50;;;;;;5038771;28;20025;-79
2022/12/10 09:02:44;;;;;;;19.63;17.55;;;9.60;84.50;;;;;;5027110;28;20101;-80
2022/12/10 09:05:10;;;;;;;19.10;17.30;;;9.70;84.40;;;;;;5055037;28;20063;-79
2022/12/10 09:07:35;;;;;;;18.95;17.08;;;9.70;84.40;;;;;;5038031;28;20057;-78
2022/12/10 09:10:01;;;;;;;18.65;16.95;;;9.70;84.50;;;;;;5035862;28;20028;-79
2022/12/10 09:12:26;;;;;;;19.42;17.60;;;9.70;84.50;;;;;;5054222;28;20485;-79
2022/12/10 09:14:52;;;;;;;19.10;17.30;;;9.70;84.50;;;;;;5055915;28;20034;-78
2022/12/10 09:17:17;;;;;;;18.33;16.48;;;9.80;84.60;;;;;;5053540;28;20039;-78
2022/12/10 09:19:43;;;;;;;20.23;17.85;;;9.70;84.50;;;;;;5051983;28;20025;-77
2022/12/10 09:22:08;;;;;;;19.23;17.23;;;9.70;84.20;;;;;;5033943;28;20079;-78
2022/12/10 09:24:34;;;;;;;20.88;18.67;;;9.80;83.40;;;;;;5033749;28;20078;-76
2022/12/10 09:27:01;;;;;;;20.85;18.90;;;9.70;83.00;;;;;;5044093;28;20464;-78
2022/12/10 09:29:27;;;;;;;21.63;19.10;;;9.70;82.60;;;;;;5040691;28;20029;-78
2022/12/10 09:31:52;;;;;;;20.05;18.02;;;9.80;83.20;;;;;;5045504;28;20092;-78
2022/12/10 09:34:18;;;;;;;20.13;17.88;;;9.80;83.10;;;;;;5032103;28;20029;-78
2022/12/10 09:36:44;;;;;;;23.98;18.20;;;9.80;83.20;;;;;;5049488;28;20025;-78
2022/12/10 09:39:09;;;;;;;21.30;19.08;;;9.80;82.70;;;;;;5035499;28;20084;-79
2022/12/10 09:41:50;;;;;;;20.45;18.45;;;9.80;82.90;;;;;;5050067;28;20104;-78
2022/12/10 09:44:58;;;;;;;21.80;17.75;;;9.90;82.80;;;;;;5033372;28;20057;-78
2022/12/10 09:47:34;;;;;;;20.45;18.25;;;9.90;83.10;;;;;;5046804;28;20025;-79
2022/12/10 09:50:21;;;;;;;21.20;18.17;;;10.00;83.50;;;;;;5059438;28;20400;-79
2022/12/10 09:52:49;;;;;;;19.38;17.38;;;10.00;83.50;;;;;;5049367;28;20029;-80
2022/12/10 09:55:18;;;;;;;19.60;17.60;;;10.10;84.30;;;;;;5053954;28;20029;-79
2022/12/10 09:57:48;;;;;;;19.13;16.77;;;10.10;83.90;;;;;;5037951;28;20026;-80
2022/12/10 10:00:22;;;;;;;18.45;16.67;;;10.20;84.10;;;;;;5055080;28;20036;-80
2022/12/10 10:02:50;;;;;;;19.83;17.80;;;10.20;84.20;;;;;;5053485;28;20025;-79
2022/12/10 10:05:24;;;;;;;20.05;18.15;;;10.30;84.30;;;;;;5055090;28;20485;-79
2022/12/10 10:07:55;;;;;;;20.05;17.95;;;10.40;84.40;;;;;;5057344;28;20067;-79
2022/12/10 10:10:47;;;;;;;18.67;16.75;;;10.40;84.50;;;;;;5058247;28;20453;-79
2022/12/10 10:13:25;;;;;;;19.10;17.35;;;10.50;84.50;;;;;;5049915;28;20037;-78
2022/12/10 10:15:52;;;;;;;19.63;17.70;;;10.60;84.50;;;;;;5036401;28;20021;-79
2022/12/10 10:18:40;;;;;;;18.65;16.92;;;10.70;84.30;;;;;;5053334;28;20032;-79
2022/12/10 10:21:17;;;;;;;19.58;17.58;;;10.80;84.20;;;;;;5035381;28;20025;-79
2022/12/10 10:23:45;;;;;;;18.27;16.48;;;10.90;84.00;;;;;;5036234;28;20033;-79
2022/12/10 10:26:10;;;;;;;18.45;16.65;;;11.00;83.80;;;;;;5041829;28;20021;-79
2022/12/10 10:28:38;;;;;;;19.13;17.27;;;11.00;83.60;;;;;;5035105;28;20077;-79
2022/12/10 10:31:18;;;;;;;18.85;17.05;;;10.90;83.70;;;;;;5047924;28;20051;-78
2022/12/10 10:33:50;;;;;;;17.55;15.88;;;10.80;83.90;;;;;;5040826;28;20088;-79
2022/12/10 10:36:15;;;;;;;;;;;10.80;84.30;;;;;;5058866;28;20029;-79
2022/12/10 10:38:47;;;;;;;17.05;15.43;;;10.80;84.50;;;;;;5041595;28;19927;-76
2022/12/10 10:41:14;;;;;;;18.15;16.33;;;10.70;84.50;;;;;;5058794;28;20438;-79
2022/12/10 10:43:44;;;;;;;17.33;15.68;;;10.70;84.60;;;;;;5037152;28;20033;-79
2022/12/10 10:46:16;;;;;;;18.10;16.20;;;10.60;84.70;;;;;;5036495;28;20048;-77
2022/12/10 10:48:42;;;;;;;;;;;10.60;84.70;;;;;;5048103;28;20052;-79
2022/12/10 10:51:28;;;;;;;16.88;15.20;;;10.60;84.80;;;;;;5055319;28;19905;-81
2022/12/10 10:53:56;;;;;;;18.60;16.90;;;10.60;84.80;;;;;;5055393;28;20040;-78
2022/12/10 10:56:29;;;;;;;19.38;17.08;;;10.60;84.90;;;;;;5054916;28;20048;-79
2022/12/10 10:58:56;;;;;;;17.42;15.88;;;10.60;84.90;;;;;;5035344;28;20040;-80
2022/12/10 11:01:25;;;;;;;17.92;16.17;;;10.60;84.80;;;;;;5039344;28;20021;-78
2022/12/10 11:03:56;;;;;;;18.17;16.20;;;10.50;84.90;;;;;;5037624;28;20474;-79
2022/12/10 11:06:22;;;;;;;17.33;15.77;;;10.50;84.80;;;;;;5056132;28;20082;-80
2022/12/10 11:08:49;;;;;;;17.17;15.57;;;10.50;84.80;;;;;;5057773;28;20025;-79
2022/12/10 11:11:22;;;;;;;17.75;16.15;;;10.50;84.80;;;;;;5039031;28;20070;-79
2022/12/10 11:13:48;;;;;;;17.05;14.98;;;10.40;85.20;;;;;;5028279;28;20029;-79
2022/12/10 11:16:22;;;;;;;17.25;15.60;;;10.50;84.80;;;;;;5036161;28;20164;-81
2022/12/10 11:19:02;;;;;;;17.00;15.40;;;10.40;84.70;;;;;;5037889;28;20025;-77
2022/12/10 11:21:30;;;;;;;16.33;14.73;;;10.50;84.80;;;;;;5029804;28;20091;-79
2022/12/10 11:23:57;;;;;;;18.08;15.98;;;10.50;84.70;;;;;;5055779;28;20079;-79
2022/12/10 11:26:22;;;;;;;17.25;15.45;;;10.50;84.60;;;;;;5039129;28;20188;-79
2022/12/10 11:29:15;;;;;;;17.00;15.50;;;10.50;84.50;;;;;;5054583;28;20021;-80
2022/12/10 11:32:21;;;;;;;17.15;15.35;;;10.40;84.40;;;;;;5052521;28;20747;-78
2022/12/10 11:35:11;;;;;;;16.17;14.68;;;10.40;84.40;;;;;;4984126;28;20046;-79
2022/12/10 11:37:56;;;;;;;16.73;15.10;;;10.50;84.40;;;;;;5055925;28;20049;-80
2022/12/10 11:40:37;;;;;;;17.35;15.35;;;10.50;84.30;;;;;;5018980;28;20044;-80
2022/12/10 11:43:33;;;;;;;17.65;15.85;;;10.50;84.20;;;;;;5028545;28;20120;-79
2022/12/10 11:46:14;;;;;;;17.33;15.52;;;10.50;84.10;;;;;;5019004;28;20083;-80
2022/12/10 11:48:42;;;;;;;15.65;14.25;;;10.50;84.10;;;;;;5054226;28;20027;-79
2022/12/10 11:51:17;;;;;;;16.73;15.23;;;10.50;84.10;;;;;;5038327;28;20078;-80
2022/12/10 11:54:06;;;;;;;16.55;14.90;;;10.50;84.20;;;;;;5038651;28;20056;-79
2022/12/10 11:56:43;;;;;;;15.88;14.38;;;10.40;84.30;;;;;;5046941;28;20405;-78
2022/12/10 11:59:16;;;;;;;15.88;14.38;;;10.40;84.40;;;;;;5036309;28;20541;-79
2022/12/10 12:02:05;;;;;;;16.95;15.30;;;10.40;84.50;;;;;;5027890;28;20475;-78
2022/12/10 12:04:57;;;;;;;15.68;14.27;;;10.30;84.50;;;;;;5052727;28;20028;-78
2022/12/10 12:07:33;;;;;;;16.38;14.73;;;10.30;84.60;;;;;;5055019;28;20495;-80
2022/12/10 12:10:23;;;;;;;16.08;14.68;;;10.30;84.70;;;;;;5039299;28;20021;-78
2022/12/10 12:13:04;;;;;;;16.10;14.55;;;10.30;84.80;;;;;;5035405;28;20035;-79
2022/12/10 12:15:42;;;;;;;16.30;14.80;;;10.30;84.80;;;;;;5049345;28;20040;-80
2022/12/10 12:18:46;;;;;;;15.80;14.27;;;10.30;84.80;;;;;;5032504;28;20528;-80
2022/12/10 12:21:15;;;;;;;16.05;14.52;;;10.30;84.90;;;;;;5032967;28;20107;-79
2022/12/10 12:23:55;;;;;;;16.02;14.52;;;10.20;84.80;;;;;;5026895;28;20029;-79
2022/12/10 12:26:47;;;;;;;16.70;15.03;;;10.20;84.90;;;;;;5037997;28;20021;-79
2022/12/10 12:29:50;;;;;;;15.88;14.38;;;10.20;84.80;;;;;;5037615;28;20044;-80
2022/12/10 12:32:54;;;;;;;15.95;14.40;;;10.20;84.90;;;;;;5030794;28;20036;-81
2022/12/10 12:35:47;;;;;;;17.13;15.32;;;10.20;84.90;;;;;;5053956;28;20025;-80
2022/12/10 12:38:37;;;;;;;15.88;14.02;;;10.20;85.00;;;;;;5051567;28;20032;-75
2022/12/10 12:41:11;;;;;;;16.52;14.30;;;10.20;85.00;;;;;;5040826;28;20028;-78
2022/12/10 12:43:37;;;;;;;15.60;14.00;;;10.10;85.00;;;;;;5034577;28;20497;-79
2022/12/10 12:46:31;;;;;;;15.48;13.98;;;10.10;85.00;;;;;;5048796;28;20021;-78
2022/12/10 12:49:03;;;;;;;15.98;14.40;;;10.20;85.60;;;;;;5038015;28;20026;-79
2022/12/10 12:51:31;;;;;;;15.93;14.32;;;10.10;85.00;;;;;;5035626;28;20059;-77
2022/12/10 12:53:57;;;;;;;15.70;14.20;;;10.10;85.00;;;;;;5036890;28;20057;-80
2022/12/10 12:56:57;;;;;;;16.02;14.52;;;10.10;85.00;;;;;;5039686;28;20037;-80
2022/12/10 12:59:29;;;;;;;15.43;13.93;;;10.10;85.00;;;;;;5009317;28;20187;-78
2022/12/10 13:02:17;;;;;;;14.88;13.55;;;10.10;85.00;;;;;;5038987;28;20029;-77
2022/12/10 13:04:43;;;;;;;15.73;14.23;;;10.10;85.00;;;;;;5033654;28;20079;-78
2022/12/10 13:07:09;;;;;;;15.73;14.23;;;10.10;85.00;;;;;;5034257;28;20026;-79